sensor_id;sensor_type;location;lat;lon;timestamp;P1;durP1;ratioP1;P2;durP2;ratioP2
49978;SDS011;35869;50.990;6.962;2022-11-25T00:02:07;9.10;;;3.55;;
49978;SDS011;35869;50.990;6.962;2022-11-25T00:07:07;6.25;;;3.53;;
49978;SDS011;35869;50.990;6.962;2022-11-25T00:12:08;8.23;;;3.33;;
49978;SDS011;35869;50.990;6.962;2022-11-25T00:17:08;12.65;;;3.65;;
49978;SDS011;35869;50.990;6.962;2022-11-25T00:22:08;5.00;;;3.20;;
49978;SDS011;35869;50.990;6.962;2022-11-25T00:27:08;7.95;;;3.80;;
49978;SDS011;35869;50.990;6.962;2022-11-25T00:32:08;5.90;;;3.47;;
49978;SDS011;35869;50.990;6.962;2022-11-25T00:37:09;12.48;;;3.70;;
49978;SDS011;35869;50.990;6.962;2022-11-25T00:42:09;7.13;;;3.60;;
49978;SDS011;35869;50.990;6.962;2022-11-25T00:47:13;9.15;;;4.05;;
49978;SDS011;35869;50.990;6.962;2022-11-25T00:52:16;11.10;;;4.65;;
49978;SDS011;35869;50.990;6.962;2022-11-25T00:57:19;11.77;;;4.03;;
49978;SDS011;35869;50.990;6.962;2022-11-25T01:02:21;13.82;;;4.25;;
49978;SDS011;35869;50.990;6.962;2022-11-25T01:07:21;16.25;;;4.47;;
49978;SDS011;35869;50.990;6.962;2022-11-25T01:12:22;10.43;;;4.95;;
49978;SDS011;35869;50.990;6.962;2022-11-25T01:17:22;8.98;;;3.28;;
49978;SDS011;35869;50.990;6.962;2022-11-25T01:22:22;11.13;;;4.13;;
49978;SDS011;35869;50.990;6.962;2022-11-25T01:27:22;10.02;;;3.33;;
49978;SDS011;35869;50.990;6.962;2022-11-25T01:32:23;6.80;;;3.67;;
49978;SDS011;35869;50.990;6.962;2022-11-25T01:37:23;8.63;;;3.97;;
49978;SDS011;35869;50.990;6.962;2022-11-25T01:42:26;6.80;;;3.30;;
49978;SDS011;35869;50.990;6.962;2022-11-25T01:47:28;9.35;;;3.45;;
49978;SDS011;35869;50.990;6.962;2022-11-25T01:57:36;9.40;;;3.83;;
49978;SDS011;35869;50.990;6.962;2022-11-25T02:02:49;8.57;;;3.78;;
49978;SDS011;35869;50.990;6.962;2022-11-25T02:07:53;10.80;;;4.70;;
49978;SDS011;35869;50.990;6.962;2022-11-25T02:12:54;5.67;;;3.33;;
49978;SDS011;35869;50.990;6.962;2022-11-25T02:17:54;15.75;;;3.95;;
49978;SDS011;35869;50.990;6.962;2022-11-25T02:23:00;15.00;;;4.43;;
49978;SDS011;35869;50.990;6.962;2022-11-25T02:28:10;7.70;;;3.88;;
49978;SDS011;35869;50.990;6.962;2022-11-25T02:33:13;10.52;;;3.67;;
49978;SDS011;35869;50.990;6.962;2022-11-25T02:38:15;8.27;;;3.75;;
49978;SDS011;35869;50.990;6.962;2022-11-25T02:43:29;13.07;;;5.15;;
49978;SDS011;35869;50.990;6.962;2022-11-25T02:48:31;6.82;;;3.78;;
49978;SDS011;35869;50.990;6.962;2022-11-25T02:53:33;5.88;;;3.42;;
49978;SDS011;35869;50.990;6.962;2022-11-25T02:58:34;10.52;;;4.03;;
49978;SDS011;35869;50.990;6.962;2022-11-25T03:03:35;9.30;;;4.77;;
49978;SDS011;35869;50.990;6.962;2022-11-25T03:08:36;14.30;;;4.25;;
49978;SDS011;35869;50.990;6.962;2022-11-25T03:13:36;12.23;;;3.40;;
49978;SDS011;35869;50.990;6.962;2022-11-25T03:18:37;9.57;;;3.60;;
49978;SDS011;35869;50.990;6.962;2022-11-25T03:23:37;7.53;;;3.60;;
49978;SDS011;35869;50.990;6.962;2022-11-25T03:28:37;7.07;;;3.60;;
49978;SDS011;35869;50.990;6.962;2022-11-25T03:33:38;7.13;;;3.72;;
49978;SDS011;35869;50.990;6.962;2022-11-25T03:38:38;11.20;;;3.88;;
49978;SDS011;35869;50.990;6.962;2022-11-25T03:43:38;14.77;;;4.07;;
49978;SDS011;35869;50.990;6.962;2022-11-25T03:48:39;9.70;;;4.13;;
49978;SDS011;35869;50.990;6.962;2022-11-25T03:53:39;9.07;;;3.72;;
49978;SDS011;35869;50.990;6.962;2022-11-25T03:58:39;13.68;;;3.70;;
49978;SDS011;35869;50.990;6.962;2022-11-25T04:03:39;10.32;;;3.67;;
49978;SDS011;35869;50.990;6.962;2022-11-25T04:08:40;14.20;;;4.10;;
49978;SDS011;35869;50.990;6.962;2022-11-25T04:13:41;11.88;;;4.18;;
49978;SDS011;35869;50.990;6.962;2022-11-25T04:18:41;10.90;;;5.00;;
49978;SDS011;35869;50.990;6.962;2022-11-25T04:23:41;14.35;;;3.95;;
49978;SDS011;35869;50.990;6.962;2022-11-25T04:28:42;9.98;;;3.45;;
49978;SDS011;35869;50.990;6.962;2022-11-25T04:33:42;10.05;;;4.25;;
49978;SDS011;35869;50.990;6.962;2022-11-25T04:38:42;7.18;;;3.33;;
49978;SDS011;35869;50.990;6.962;2022-11-25T04:43:42;16.17;;;4.00;;
49978;SDS011;35869;50.990;6.962;2022-11-25T04:48:43;9.70;;;3.50;;
49978;SDS011;35869;50.990;6.962;2022-11-25T04:53:43;14.82;;;4.07;;
49978;SDS011;35869;50.990;6.962;2022-11-25T04:58:43;9.68;;;4.32;;
49978;SDS011;35869;50.990;6.962;2022-11-25T05:03:44;10.43;;;4.63;;
49978;SDS011;35869;50.990;6.962;2022-11-25T05:08:47;15.53;;;4.47;;
49978;SDS011;35869;50.990;6.962;2022-11-25T05:13:48;10.45;;;4.55;;
49978;SDS011;35869;50.990;6.962;2022-11-25T05:18:48;9.18;;;4.28;;
49978;SDS011;35869;50.990;6.962;2022-11-25T05:23:48;11.25;;;5.05;;
49978;SDS011;35869;50.990;6.962;2022-11-25T05:28:49;12.07;;;5.10;;
49978;SDS011;35869;50.990;6.962;2022-11-25T05:33:49;13.32;;;5.53;;
49978;SDS011;35869;50.990;6.962;2022-11-25T05:38:49;10.32;;;4.60;;
49978;SDS011;35869;50.990;6.962;2022-11-25T05:43:49;11.07;;;4.90;;
49978;SDS011;35869;50.990;6.962;2022-11-25T05:48:54;10.40;;;5.00;;
49978;SDS011;35869;50.990;6.962;2022-11-25T05:53:55;10.15;;;5.22;;
49978;SDS011;35869;50.990;6.962;2022-11-25T05:58:57;13.77;;;5.63;;
49978;SDS011;35869;50.990;6.962;2022-11-25T06:03:59;17.73;;;5.78;;
49978;SDS011;35869;50.990;6.962;2022-11-25T06:08:59;14.40;;;5.97;;
49978;SDS011;35869;50.990;6.962;2022-11-25T06:14:00;18.50;;;6.47;;
49978;SDS011;35869;50.990;6.962;2022-11-25T06:19:01;11.23;;;5.63;;
49978;SDS011;35869;50.990;6.962;2022-11-25T06:24:01;9.90;;;5.68;;
49978;SDS011;35869;50.990;6.962;2022-11-25T06:29:02;19.90;;;6.53;;
49978;SDS011;35869;50.990;6.962;2022-11-25T06:34:02;13.32;;;5.78;;
49978;SDS011;35869;50.990;6.962;2022-11-25T06:39:02;18.00;;;6.47;;
49978;SDS011;35869;50.990;6.962;2022-11-25T06:44:03;15.67;;;6.40;;
49978;SDS011;35869;50.990;6.962;2022-11-25T06:49:03;14.93;;;7.47;;
49978;SDS011;35869;50.990;6.962;2022-11-25T06:54:03;16.67;;;6.80;;
49978;SDS011;35869;50.990;6.962;2022-11-25T06:59:04;17.23;;;6.10;;
49978;SDS011;35869;50.990;6.962;2022-11-25T07:04:04;16.10;;;5.72;;
49978;SDS011;35869;50.990;6.962;2022-11-25T07:09:04;15.57;;;6.90;;
49978;SDS011;35869;50.990;6.962;2022-11-25T07:14:07;13.50;;;7.13;;
49978;SDS011;35869;50.990;6.962;2022-11-25T07:19:11;13.40;;;6.15;;
49978;SDS011;35869;50.990;6.962;2022-11-25T07:24:13;14.90;;;6.30;;
49978;SDS011;35869;50.990;6.962;2022-11-25T07:29:15;20.67;;;7.00;;
49978;SDS011;35869;50.990;6.962;2022-11-25T07:34:17;13.43;;;6.35;;
49978;SDS011;35869;50.990;6.962;2022-11-25T07:39:19;15.90;;;7.07;;
49978;SDS011;35869;50.990;6.962;2022-11-25T07:44:21;21.35;;;7.47;;
49978;SDS011;35869;50.990;6.962;2022-11-25T07:49:22;14.77;;;7.95;;
49978;SDS011;35869;50.990;6.962;2022-11-25T07:59:22;13.15;;;7.03;;
49978;SDS011;35869;50.990;6.962;2022-11-25T08:04:23;14.57;;;7.03;;
49978;SDS011;35869;50.990;6.962;2022-11-25T08:09:23;10.98;;;6.68;;
49978;SDS011;35869;50.990;6.962;2022-11-25T08:14:23;18.38;;;6.30;;
49978;SDS011;35869;50.990;6.962;2022-11-25T08:19:24;14.88;;;6.95;;
49978;SDS011;35869;50.990;6.962;2022-11-25T08:24:24;15.40;;;6.63;;
49978;SDS011;35869;50.990;6.962;2022-11-25T08:29:24;18.88;;;7.00;;
49978;SDS011;35869;50.990;6.962;2022-11-25T08:34:24;10.60;;;6.82;;
49978;SDS011;35869;50.990;6.962;2022-11-25T08:39:25;17.10;;;7.97;;
49978;SDS011;35869;50.990;6.962;2022-11-25T08:44:25;18.23;;;8.17;;
49978;SDS011;35869;50.990;6.962;2022-11-25T08:49:25;17.35;;;7.95;;
49978;SDS011;35869;50.990;6.962;2022-11-25T08:54:26;14.63;;;8.00;;
49978;SDS011;35869;50.990;6.962;2022-11-25T08:59:26;20.55;;;9.23;;
49978;SDS011;35869;50.990;6.962;2022-11-25T09:04:26;14.50;;;8.07;;
49978;SDS011;35869;50.990;6.962;2022-11-25T09:09:26;16.95;;;8.10;;
49978;SDS011;35869;50.990;6.962;2022-11-25T09:14:27;15.18;;;7.53;;
49978;SDS011;35869;50.990;6.962;2022-11-25T09:19:28;19.38;;;8.50;;
49978;SDS011;35869;50.990;6.962;2022-11-25T09:24:28;14.85;;;8.02;;
49978;SDS011;35869;50.990;6.962;2022-11-25T09:29:28;16.38;;;8.93;;
49978;SDS011;35869;50.990;6.962;2022-11-25T09:34:28;15.23;;;9.07;;
49978;SDS011;35869;50.990;6.962;2022-11-25T09:39:29;16.73;;;8.88;;
49978;SDS011;35869;50.990;6.962;2022-11-25T09:49:53;15.75;;;9.02;;
49978;SDS011;35869;50.990;6.962;2022-11-25T10:05:02;10.15;;;7.45;;
49978;SDS011;35869;50.990;6.962;2022-11-25T10:15:35;14.73;;;9.63;;
49978;SDS011;35869;50.990;6.962;2022-11-25T10:20:42;18.40;;;8.07;;
49978;SDS011;35869;50.990;6.962;2022-11-25T10:25:46;8.73;;;4.40;;
49978;SDS011;35869;50.990;6.962;2022-11-25T10:41:03;11.70;;;3.53;;
49978;SDS011;35869;50.990;6.962;2022-11-25T10:46:07;6.57;;;4.00;;
49978;SDS011;35869;50.990;6.962;2022-11-25T10:51:43;6.28;;;3.25;;
49978;SDS011;35869;50.990;6.962;2022-11-25T10:56:47;13.75;;;3.10;;
49978;SDS011;35869;50.990;6.962;2022-11-25T11:01:48;5.68;;;3.08;;
49978;SDS011;35869;50.990;6.962;2022-11-25T11:06:50;11.25;;;3.92;;
49978;SDS011;35869;50.990;6.962;2022-11-25T11:11:51;12.60;;;3.28;;
49978;SDS011;35869;50.990;6.962;2022-11-25T11:16:52;10.30;;;3.35;;
49978;SDS011;35869;50.990;6.962;2022-11-25T11:21:54;9.30;;;2.92;;
49978;SDS011;35869;50.990;6.962;2022-11-25T11:32:04;9.50;;;3.05;;
49978;SDS011;35869;50.990;6.962;2022-11-25T11:48:23;10.68;;;4.85;;
49978;SDS011;35869;50.990;6.962;2022-11-25T11:53:42;9.00;;;3.42;;
49978;SDS011;35869;50.990;6.962;2022-11-25T12:09:27;13.82;;;3.65;;
49978;SDS011;35869;50.990;6.962;2022-11-25T12:14:50;10.60;;;3.33;;
49978;SDS011;35869;50.990;6.962;2022-11-25T12:25:22;9.80;;;3.65;;
49978;SDS011;35869;50.990;6.962;2022-11-25T12:30:33;8.75;;;3.60;;
49978;SDS011;35869;50.990;6.962;2022-11-25T12:46:09;12.90;;;3.47;;
49978;SDS011;35869;50.990;6.962;2022-11-25T13:07:38;11.77;;;3.55;;
49978;SDS011;35869;50.990;6.962;2022-11-25T13:12:59;10.85;;;3.70;;
49978;SDS011;35869;50.990;6.962;2022-11-25T13:18:03;8.05;;;3.03;;
49978;SDS011;35869;50.990;6.962;2022-11-25T13:23:19;9.32;;;3.67;;
49978;SDS011;35869;50.990;6.962;2022-11-25T13:48:54;9.25;;;2.80;;
49978;SDS011;35869;50.990;6.962;2022-11-25T13:53:56;4.93;;;2.43;;
49978;SDS011;35869;50.990;6.962;2022-11-25T14:04:09;6.28;;;2.10;;
49978;SDS011;35869;50.990;6.962;2022-11-25T14:25:18;10.53;;;3.10;;
49978;SDS011;35869;50.990;6.962;2022-11-25T14:30:21;11.85;;;2.80;;
49978;SDS011;35869;50.990;6.962;2022-11-25T14:35:27;7.45;;;2.63;;
49978;SDS011;35869;50.990;6.962;2022-11-25T14:40:37;9.70;;;3.05;;
49978;SDS011;35869;50.990;6.962;2022-11-25T14:46:12;7.20;;;3.00;;
49978;SDS011;35869;50.990;6.962;2022-11-25T14:51:14;8.15;;;2.72;;
49978;SDS011;35869;50.990;6.962;2022-11-25T14:56:22;8.03;;;2.83;;
49978;SDS011;35869;50.990;6.962;2022-11-25T15:01:29;5.88;;;2.63;;
49978;SDS011;35869;50.990;6.962;2022-11-25T15:06:32;10.43;;;4.18;;
49978;SDS011;35869;50.990;6.962;2022-11-25T15:11:34;8.98;;;3.10;;
49978;SDS011;35869;50.990;6.962;2022-11-25T15:16:35;10.17;;;2.87;;
49978;SDS011;35869;50.990;6.962;2022-11-25T15:21:39;8.00;;;3.20;;
49978;SDS011;35869;50.990;6.962;2022-11-25T15:26:40;7.03;;;2.92;;
49978;SDS011;35869;50.990;6.962;2022-11-25T15:31:50;8.32;;;2.60;;
49978;SDS011;35869;50.990;6.962;2022-11-25T15:36:51;9.70;;;2.90;;
49978;SDS011;35869;50.990;6.962;2022-11-25T15:42:33;8.67;;;3.27;;
49978;SDS011;35869;50.990;6.962;2022-11-25T15:47:24;11.70;;;3.45;;
49978;SDS011;35869;50.990;6.962;2022-11-25T15:52:30;8.75;;;3.08;;
49978;SDS011;35869;50.990;6.962;2022-11-25T15:57:35;8.70;;;3.13;;
49978;SDS011;35869;50.990;6.962;2022-11-25T16:23:40;11.43;;;3.70;;
49978;SDS011;35869;50.990;6.962;2022-11-25T16:28:48;7.47;;;3.80;;
49978;SDS011;35869;50.990;6.962;2022-11-25T16:34:13;7.63;;;2.75;;
49978;SDS011;35869;50.990;6.962;2022-11-25T16:39:15;8.02;;;2.92;;
49978;SDS011;35869;50.990;6.962;2022-11-25T16:44:17;9.20;;;3.30;;
49978;SDS011;35869;50.990;6.962;2022-11-25T16:49:19;5.07;;;2.42;;
49978;SDS011;35869;50.990;6.962;2022-11-25T16:54:21;11.38;;;3.53;;
49978;SDS011;35869;50.990;6.962;2022-11-25T17:04:28;10.30;;;3.05;;
49978;SDS011;35869;50.990;6.962;2022-11-25T17:09:28;11.13;;;3.40;;
49978;SDS011;35869;50.990;6.962;2022-11-25T17:14:29;9.98;;;3.25;;
49978;SDS011;35869;50.990;6.962;2022-11-25T17:19:32;12.27;;;3.95;;
49978;SDS011;35869;50.990;6.962;2022-11-25T17:24:32;9.70;;;3.53;;
49978;SDS011;35869;50.990;6.962;2022-11-25T17:29:36;8.68;;;3.17;;
49978;SDS011;35869;50.990;6.962;2022-11-25T17:34:39;8.63;;;3.05;;
49978;SDS011;35869;50.990;6.962;2022-11-25T17:39:40;13.18;;;3.63;;
49978;SDS011;35869;50.990;6.962;2022-11-25T17:44:41;9.02;;;2.85;;
49978;SDS011;35869;50.990;6.962;2022-11-25T17:49:42;7.30;;;2.85;;
49978;SDS011;35869;50.990;6.962;2022-11-25T17:54:42;6.67;;;3.10;;
49978;SDS011;35869;50.990;6.962;2022-11-25T17:59:43;10.25;;;3.33;;
49978;SDS011;35869;50.990;6.962;2022-11-25T18:04:43;7.47;;;3.37;;
49978;SDS011;35869;50.990;6.962;2022-11-25T18:09:43;6.97;;;3.05;;
49978;SDS011;35869;50.990;6.962;2022-11-25T18:14:44;8.47;;;3.73;;
49978;SDS011;35869;50.990;6.962;2022-11-25T18:19:44;7.77;;;3.10;;
49978;SDS011;35869;50.990;6.962;2022-11-25T18:24:45;10.02;;;3.38;;
49978;SDS011;35869;50.990;6.962;2022-11-25T18:29:45;9.10;;;3.93;;
49978;SDS011;35869;50.990;6.962;2022-11-25T18:34:46;8.43;;;3.38;;
49978;SDS011;35869;50.990;6.962;2022-11-25T18:39:46;13.45;;;4.82;;
49978;SDS011;35869;50.990;6.962;2022-11-25T18:44:47;15.95;;;4.43;;
49978;SDS011;35869;50.990;6.962;2022-11-25T18:49:47;12.77;;;3.88;;
49978;SDS011;35869;50.990;6.962;2022-11-25T18:54:47;7.38;;;3.80;;
49978;SDS011;35869;50.990;6.962;2022-11-25T18:59:47;12.18;;;4.68;;
49978;SDS011;35869;50.990;6.962;2022-11-25T19:04:48;12.73;;;4.83;;
49978;SDS011;35869;50.990;6.962;2022-11-25T19:09:48;8.23;;;4.47;;
49978;SDS011;35869;50.990;6.962;2022-11-25T19:14:48;15.77;;;4.40;;
49978;SDS011;35869;50.990;6.962;2022-11-25T19:19:49;14.35;;;4.45;;
49978;SDS011;35869;50.990;6.962;2022-11-25T19:24:49;10.18;;;4.38;;
49978;SDS011;35869;50.990;6.962;2022-11-25T19:29:49;15.03;;;4.70;;
49978;SDS011;35869;50.990;6.962;2022-11-25T19:34:52;10.30;;;5.05;;
49978;SDS011;35869;50.990;6.962;2022-11-25T19:39:56;11.48;;;5.25;;
49978;SDS011;35869;50.990;6.962;2022-11-25T19:44:56;14.40;;;5.80;;
49978;SDS011;35869;50.990;6.962;2022-11-25T19:49:57;16.15;;;6.38;;
49978;SDS011;35869;50.990;6.962;2022-11-25T19:55:00;16.90;;;6.60;;
49978;SDS011;35869;50.990;6.962;2022-11-25T20:00:05;20.85;;;7.20;;
49978;SDS011;35869;50.990;6.962;2022-11-25T20:05:06;14.20;;;7.68;;
49978;SDS011;35869;50.990;6.962;2022-11-25T20:15:15;16.25;;;8.77;;
49978;SDS011;35869;50.990;6.962;2022-11-25T20:20:26;20.85;;;10.65;;
49978;SDS011;35869;50.990;6.962;2022-11-25T20:25:28;16.33;;;7.95;;
49978;SDS011;35869;50.990;6.962;2022-11-25T20:30:29;20.75;;;8.27;;
49978;SDS011;35869;50.990;6.962;2022-11-25T20:35:29;15.50;;;8.68;;
49978;SDS011;35869;50.990;6.962;2022-11-25T20:40:36;14.82;;;8.65;;
49978;SDS011;35869;50.990;6.962;2022-11-25T20:45:39;17.50;;;8.45;;
49978;SDS011;35869;50.990;6.962;2022-11-25T20:50:42;18.70;;;7.97;;
49978;SDS011;35869;50.990;6.962;2022-11-25T20:55:42;15.00;;;7.65;;
49978;SDS011;35869;50.990;6.962;2022-11-25T21:00:43;14.48;;;7.90;;
49978;SDS011;35869;50.990;6.962;2022-11-25T21:05:43;12.48;;;7.72;;
49978;SDS011;35869;50.990;6.962;2022-11-25T21:10:45;16.15;;;8.40;;
49978;SDS011;35869;50.990;6.962;2022-11-25T21:20:50;17.73;;;8.80;;
49978;SDS011;35869;50.990;6.962;2022-11-25T21:25:52;25.42;;;7.68;;
49978;SDS011;35869;50.990;6.962;2022-11-25T21:30:58;18.85;;;8.70;;
49978;SDS011;35869;50.990;6.962;2022-11-25T21:35:58;20.08;;;9.35;;
49978;SDS011;35869;50.990;6.962;2022-11-25T21:40:59;20.43;;;8.37;;
49978;SDS011;35869;50.990;6.962;2022-11-25T21:46:03;19.35;;;9.80;;
49978;SDS011;35869;50.990;6.962;2022-11-25T21:51:05;30.98;;;9.98;;
49978;SDS011;35869;50.990;6.962;2022-11-25T21:56:11;18.85;;;10.18;;
49978;SDS011;35869;50.990;6.962;2022-11-25T22:01:26;14.77;;;8.90;;
49978;SDS011;35869;50.990;6.962;2022-11-25T22:06:27;24.60;;;10.70;;
49978;SDS011;35869;50.990;6.962;2022-11-25T22:11:30;19.05;;;10.10;;
49978;SDS011;35869;50.990;6.962;2022-11-25T22:16:33;26.90;;;11.13;;
49978;SDS011;35869;50.990;6.962;2022-11-25T22:21:34;19.80;;;10.07;;
49978;SDS011;35869;50.990;6.962;2022-11-25T22:26:34;25.85;;;11.43;;
49978;SDS011;35869;50.990;6.962;2022-11-25T22:31:35;20.95;;;11.98;;
49978;SDS011;35869;50.990;6.962;2022-11-25T22:36:36;16.83;;;9.70;;
49978;SDS011;35869;50.990;6.962;2022-11-25T22:41:37;22.58;;;12.18;;
49978;SDS011;35869;50.990;6.962;2022-11-25T22:46:37;24.15;;;12.00;;
49978;SDS011;35869;50.990;6.962;2022-11-25T22:51:37;19.70;;;11.63;;
49978;SDS011;35869;50.990;6.962;2022-11-25T22:56:37;22.20;;;11.95;;
49978;SDS011;35869;50.990;6.962;2022-11-25T23:01:38;19.13;;;10.95;;
49978;SDS011;35869;50.990;6.962;2022-11-25T23:06:38;19.47;;;10.83;;
49978;SDS011;35869;50.990;6.962;2022-11-25T23:11:38;18.02;;;10.10;;
49978;SDS011;35869;50.990;6.962;2022-11-25T23:16:40;19.55;;;10.65;;
49978;SDS011;35869;50.990;6.962;2022-11-25T23:21:41;19.35;;;10.02;;
49978;SDS011;35869;50.990;6.962;2022-11-25T23:26:43;19.27;;;10.70;;
49978;SDS011;35869;50.990;6.962;2022-11-25T23:31:43;25.23;;;10.35;;
49978;SDS011;35869;50.990;6.962;2022-11-25T23:36:45;24.85;;;10.52;;
49978;SDS011;35869;50.990;6.962;2022-11-25T23:41:47;21.50;;;11.25;;
49978;SDS011;35869;50.990;6.962;2022-11-25T23:46:48;14.68;;;9.52;;
49978;SDS011;35869;50.990;6.962;2022-11-25T23:51:49;16.95;;;9.85;;
49978;SDS011;35869;50.990;6.962;2022-11-25T23:56:50;20.25;;;10.32;;
